METAR Data
IDs: Format: Raw Decoded Include TAF

Data at: 2131 UTC 18 Sep 2018

KRKP 182053Z AUTO 14008KT 7SM CLR 29/25 A2991 RMK AO2 SLP130 T02940250 56020
KRKP 181953Z AUTO 13007KT 7SM CLR 29/25 A2993 RMK AO2 SLP136 T02940250
KRKP 181853Z AUTO 13007KT 7SM CLR 29/25 A2995 RMK AO2 SLP142 T02940250
KRKP 181753Z AUTO 11007KT 7SM CLR 31/26 A2997 RMK AO2 SLP150 T03110256 10311 20250 58007
KRKP 181653Z AUTO 12006KT 7SM CLR 31/26 A2999 RMK AO2 SLP156 T03110256
KRKP 181553Z AUTO 10004KT 7SM CLR 29/26 A2999 RMK AO2 SLP157 T02940256
KRKP 181453Z AUTO 13004KT 7SM FEW015 SCT029 29/26 A2999 RMK AO2 SLP157 T02890256 51005
KRKP 181353Z AUTO 00000KT 6SM BR CLR 28/26 A2999 RMK AO2 SLP156 T02780256
KRKP 181253Z AUTO 00000KT 4SM BR CLR 26/25 A2998 RMK AO2 SLP154 T02610250
KRKP 181153Z AUTO 00000KT 5SM BR CLR 26/24 A2998 RMK AO2 SLP152 T02560244 10278 20250 53011
KRKP 181053Z AUTO 17003KT 7SM FEW014 26/24 A2995 RMK AO2 SLP144 T02560244
KRKP 180953Z AUTO 00000KT 6SM BR CLR 26/24 A2995 RMK AO2 SLP142 T02560244
KRKP 180853Z AUTO 16004KT 7SM CLR 27/26 A2994 RMK AO2 SLP141 T02720256 56007
KRKP 180753Z AUTO 00000KT 7SM CLR 27/25 A2994 RMK AO2 SLP141 T02670250
KRKP 180653Z AUTO 17004KT 8SM CLR 27/25 A2995 RMK AO2 SLP144 T02720250
KRKP 180553Z AUTO 16004KT 8SM CLR 28/25 A2996 RMK AO2 SLP147 T02780250 10283 20272 403110239 50000
KRKP 180453Z AUTO 14006KT 8SM CLR 28/26 A2997 RMK AO2 SLP150 T02780256
KRKP 180353Z AUTO 14005KT 9SM CLR 28/26 A2998 RMK AO2 SLP153 T02780256 TSNO
KRKP 180253Z AUTO 12008KT 9SM CLR 28/25 A2996 RMK AO2 SLP147 T02780250 53017 TSNO
KRKP 180153Z AUTO 12007KT 9SM CLR 28/25 A2994 RMK AO2 SLP141 T02780250
KRKP 180053Z AUTO 12008KT 8SM CLR 28/25 A2991 RMK AO2 SLP131 T02780250
KRKP 172353Z AUTO 12007KT 7SM CLR 28/24 A2991 RMK AO2 SLP130 T02830244 10311 20283 55004
KRKP 172253Z AUTO 11010KT 8SM CLR 29/25 A2991 RMK AO2 SLP130 T02940250
KRKP 172153Z AUTO 12008KT 8SM CLR 30/25 A2991 RMK AO2 SLP130 T03000250
KRKP 172053Z AUTO 13009KT 8SM CLR 30/25 A2992 RMK AO2 SLP134 T03000250 57016
KRKP 171953Z AUTO 13008KT 8SM CLR 29/25 A2994 RMK AO2 SLP139 T02940250
KRKP 171853Z AUTO 11008KT 8SM CLR 31/26 A2996 RMK AO2 SLP146 T03060256
KRKP 171753Z AUTO 11008KT 7SM CLR 30/26 A2997 RMK AO2 SLP150 T03000256 10306 20244 58004
KRKP 171653Z AUTO 12006KT 8SM CLR 30/26 A2999 RMK AO2 SLP156 T03000256
KRKP 171553Z AUTO 08004KT 8SM CLR 29/26 A2999 RMK AO2 SLP156 T02890256
KRKP 171453Z AUTO 07004KT 7SM CLR 28/26 A2998 RMK AO2 SLP155 T02830256 53014
KRKP 171353Z AUTO 07004KT 6SM BR CLR 27/26 A2997 RMK AO2 SLP149 T02670256
KRKP 171253Z AUTO 00000KT 5SM BR CLR 25/24 A2995 RMK AO2 SLP143 T02500244
KRKP 171206Z AUTO 00000KT 3SM BR CLR 24/23 A2994 RMK AO2 T02440233
KRKP 171204Z AUTO 00000KT 1 1/2SM BR CLR 24/23 A2994 RMK AO2 VIS 1/4V5 T02440233
KRKP 171153Z AUTO 00000KT 1/2SM FG CLR 24/23 A2994 RMK AO2 SLP141 70049 T02440233 10267 20239 53007
KRKP 171148Z AUTO 00000KT 3/4SM BR CLR 24/23 A2994 RMK AO2
KRKP 171144Z AUTO 00000KT 1 3/4SM BR CLR 24/23 A2994 RMK AO2 T02390233
KRKP 171053Z AUTO 00000KT 5SM BR CLR 25/24 A2993 RMK AO2 SLP136 T02500239
KRKP 170953Z AUTO 00000KT 6SM BR CLR 25/24 A2992 RMK AO2 SLP134 T02500244